createdAt,value
2018-07-01T00:00:12.832Z,67.54
2018-07-01T00:01:12.745Z,67.71
2018-07-01T00:02:12.733Z,67.64
2018-07-01T00:03:12.724Z,67.74
2018-07-01T00:04:12.710Z,68.05
2018-07-01T00:05:12.708Z,67.84
2018-07-01T00:06:12.688Z,67.64
2018-07-01T00:07:12.677Z,68.15
2018-07-01T00:08:12.665Z,68.35
2018-07-01T00:09:12.658Z,67.13
2018-07-01T00:10:12.654Z,67.97
2018-07-01T00:11:12.632Z,67.77
2018-07-01T00:12:12.622Z,67.02
2018-07-01T00:13:12.632Z,68.15
2018-07-01T00:14:12.599Z,67.67
2018-07-01T00:15:12.597Z,67.54
2018-07-01T00:16:12.580Z,67.87
2018-07-01T00:17:12.566Z,68.38
2018-07-01T00:18:12.559Z,67.87
2018-07-01T00:19:12.542Z,68.49
2018-07-01T00:20:12.541Z,67.49
2018-07-01T00:21:12.519Z,68.32
2018-07-01T00:22:12.510Z,68.52
2018-07-01T00:23:12.498Z,68.93
2018-07-01T00:24:12.492Z,68.93
2018-07-01T00:25:12.531Z,68.41
2018-07-01T00:26:12.465Z,68.93
2018-07-01T00:27:12.453Z,68.32
2018-07-01T00:28:12.443Z,68.93
2018-07-01T00:29:12.431Z,69.34
2018-07-01T00:30:12.433Z,68.73
2018-07-01T00:31:12.408Z,69.34
2018-07-01T00:32:12.397Z,68.41
2018-07-01T00:33:12.400Z,68.73
2018-07-01T00:34:12.375Z,69.24
2018-07-01T00:35:12.377Z,69.13
2018-07-01T00:36:12.355Z,69.47
2018-07-01T00:37:12.345Z,69.37
2018-07-01T00:38:12.336Z,69.47
2018-07-01T00:39:12.326Z,69.37
2018-07-01T00:40:12.320Z,69.47
2018-07-01T00:41:12.298Z,69.27
2018-07-01T00:42:12.288Z,69.03
2018-07-01T00:43:12.274Z,68.93
2018-07-01T00:44:12.268Z,69.17
2018-07-01T00:45:12.265Z,69.54
2018-07-01T00:46:12.242Z,69.06
2018-07-01T00:47:12.232Z,69.34
2018-07-01T00:48:12.220Z,69.34
2018-07-01T00:49:12.207Z,69.68
2018-07-01T00:50:12.222Z,69.17
2018-07-01T00:51:12.189Z,69.37
2018-07-01T00:52:12.174Z,69.47
2018-07-01T00:53:12.162Z,69.47
2018-07-01T00:54:12.171Z,69.57
2018-07-01T00:55:12.142Z,69.61
2018-07-01T00:56:12.150Z,69.81
2018-07-01T00:57:12.120Z,70.22
2018-07-01T00:58:12.107Z,70.12
2018-07-01T00:59:12.096Z,70.32
2018-07-01T01:00:12.086Z,70.32
2018-07-01T01:01:12.084Z,70.43
2018-07-01T01:02:12.064Z,70.73
2018-07-01T01:03:12.054Z,70.32
2018-07-01T01:04:12.041Z,70.02
2018-07-01T01:05:12.029Z,70.26
2018-07-01T01:06:12.034Z,70.46
2018-07-01T01:07:12.015Z,70.87
2018-07-01T01:08:11.995Z,70.56
2018-07-01T01:09:11.987Z,70.56
2018-07-01T01:10:11.979Z,70.87
2018-07-01T01:11:11.976Z,71.28
2018-07-01T01:12:11.951Z,71.39
2018-07-01T01:13:11.939Z,70.87
2018-07-01T01:14:11.931Z,70.77
2018-07-01T01:15:11.919Z,70.67
2018-07-01T01:16:11.915Z,70.56
2018-07-01T01:17:11.901Z,70.77
2018-07-01T01:18:11.889Z,70.87
2018-07-01T01:19:11.871Z,70.67
2018-07-01T01:20:11.861Z,70.56
2018-07-01T01:21:11.865Z,71.08
2018-07-01T01:22:11.850Z,70.67
2018-07-01T01:23:11.830Z,71.01
2018-07-01T01:24:11.824Z,70.70
2018-07-01T01:25:11.808Z,70.70
2018-07-01T01:26:11.803Z,70.77
2018-07-01T01:27:11.784Z,70.67
2018-07-01T01:28:11.780Z,70.67
2018-07-01T01:29:11.773Z,71.01
2018-07-01T01:30:11.750Z,71.62
2018-07-01T01:31:11.748Z,71.62
2018-07-01T01:32:11.742Z,71.62
2018-07-01T01:33:11.716Z,71.21
2018-07-01T01:34:11.705Z,70.90
2018-07-01T01:35:11.732Z,71.52
2018-07-01T01:36:11.690Z,71.52
2018-07-01T01:37:11.671Z,71.66
2018-07-01T01:38:11.680Z,71.76
2018-07-01T01:39:11.652Z,71.72
2018-07-01T01:40:11.639Z,71.86
2018-07-01T01:41:11.636Z,71.66
2018-07-01T01:42:11.620Z,71.62
2018-07-01T01:43:11.603Z,71.45
2018-07-01T01:44:11.593Z,71.97
2018-07-01T01:45:11.586Z,71.76
2018-07-01T01:46:11.581Z,71.97
2018-07-01T01:47:11.567Z,71.97
2018-07-01T01:48:11.552Z,72.06
2018-07-01T01:49:11.537Z,71.66
2018-07-01T01:50:11.528Z,71.97
2018-07-01T01:51:11.523Z,72.72
2018-07-01T01:52:11.505Z,72.41
2018-07-01T01:53:11.495Z,72.41
2018-07-01T01:54:11.514Z,73.02
2018-07-01T01:55:11.468Z,72.72
2018-07-01T01:56:11.470Z,72.72
2018-07-01T01:57:11.446Z,72.82
2018-07-01T01:58:11.435Z,72.61
2018-07-01T01:59:11.439Z,72.92
2018-07-01T02:00:11.418Z,72.31
2018-07-01T02:01:11.409Z,72.20
2018-07-01T02:02:11.395Z,72.10
2018-07-01T02:03:11.383Z,72.31
2018-07-01T02:04:11.371Z,72.41
2018-07-01T02:05:11.358Z,72.20
2018-07-01T02:06:11.374Z,72.72
2018-07-01T02:07:11.335Z,72.72
2018-07-01T02:08:11.322Z,73.33
2018-07-01T02:09:11.319Z,72.55
2018-07-01T02:10:11.300Z,72.92
2018-07-01T02:11:11.304Z,73.13
2018-07-01T02:12:11.277Z,73.02
2018-07-01T02:13:11.267Z,73.85
2018-07-01T02:14:11.255Z,73.57
2018-07-01T02:15:11.244Z,73.68
2018-07-01T02:16:11.241Z,72.96
2018-07-01T02:17:11.222Z,73.27
2018-07-01T02:18:11.211Z,73.78
2018-07-01T02:19:11.214Z,73.27
2018-07-01T02:20:11.187Z,72.65
2018-07-01T02:21:11.188Z,73.16
2018-07-01T02:22:11.168Z,73.36
2018-07-01T02:23:11.155Z,73.40
2018-07-01T02:24:11.144Z,73.19
2018-07-01T02:25:11.134Z,73.50
2018-07-01T02:26:11.131Z,73.71
2018-07-01T02:27:11.110Z,74.53
2018-07-01T02:28:11.097Z,74.53
2018-07-01T02:29:11.088Z,73.81
2018-07-01T02:30:11.084Z,74.22
2018-07-01T02:31:11.078Z,73.71
2018-07-01T02:32:11.056Z,73.61
2018-07-01T02:33:11.043Z,73.81
2018-07-01T02:34:11.031Z,73.81
2018-07-01T02:35:11.021Z,73.71
2018-07-01T02:36:11.043Z,73.81
2018-07-01T02:37:10.998Z,73.74
2018-07-01T02:38:10.987Z,73.81
2018-07-01T02:39:10.976Z,73.81
2018-07-01T02:40:10.963Z,73.74
2018-07-01T02:41:10.973Z,74.46
2018-07-01T02:42:10.942Z,74.26
2018-07-01T02:43:10.928Z,74.05
2018-07-01T02:44:10.933Z,74.05
2018-07-01T02:45:10.923Z,74.05
2018-07-01T02:46:10.924Z,74.77
2018-07-01T02:47:10.896Z,74.26
2018-07-01T02:48:10.892Z,74.98
2018-07-01T02:49:10.862Z,75.08
2018-07-01T02:50:10.853Z,74.77
2018-07-01T02:51:10.849Z,74.36
2018-07-01T02:52:10.835Z,73.95
2018-07-01T02:53:10.819Z,74.46
2018-07-01T02:54:10.815Z,74.80
2018-07-01T02:55:10.816Z,75.08
2018-07-01T02:56:10.802Z,74.29
2018-07-01T02:57:10.773Z,74.08
2018-07-01T02:58:10.761Z,74.36
2018-07-01T02:59:10.750Z,74.26
2018-07-01T03:00:10.761Z,73.74
2018-07-01T03:01:10.759Z,74.87
2018-07-01T03:02:10.716Z,73.64
2018-07-01T03:03:10.706Z,74.46
2018-07-01T03:04:10.695Z,74.57
2018-07-01T03:05:10.685Z,73.88
2018-07-01T03:06:10.673Z,74.57
2018-07-01T03:07:10.694Z,74.67
2018-07-01T03:08:10.649Z,75.01
2018-07-01T03:09:10.642Z,74.50
2018-07-01T03:10:10.626Z,75.32
2018-07-01T03:11:10.622Z,75.01
2018-07-01T03:12:10.615Z,74.70
2018-07-01T03:13:10.593Z,74.19
2018-07-01T03:14:10.582Z,75.22
2018-07-01T03:15:10.572Z,75.63
2018-07-01T03:16:10.560Z,75.84
2018-07-01T03:17:10.559Z,75.63
2018-07-01T03:18:10.545Z,75.77
2018-07-01T03:19:10.529Z,75.52
2018-07-01T03:20:10.516Z,75.63
2018-07-01T03:21:10.502Z,75.05
2018-07-01T03:22:10.509Z,75.35
2018-07-01T03:23:10.480Z,75.56
2018-07-01T03:24:10.471Z,75.67
2018-07-01T03:25:10.459Z,75.77
2018-07-01T03:26:10.447Z,75.67
2018-07-01T03:27:10.445Z,75.67
2018-07-01T03:28:10.431Z,75.46
2018-07-01T03:29:10.414Z,75.05
2018-07-01T03:30:10.402Z,76.01
2018-07-01T03:31:10.394Z,75.15
2018-07-01T03:32:10.389Z,75.35
2018-07-01T03:33:10.368Z,75.35
2018-07-01T03:34:10.365Z,75.81
2018-07-01T03:35:10.346Z,75.46
2018-07-01T03:36:10.339Z,75.67
2018-07-01T03:37:10.353Z,75.67
2018-07-01T03:38:10.314Z,76.07
2018-07-01T03:39:10.299Z,75.81
2018-07-01T03:40:10.297Z,75.70
2018-07-01T03:41:10.280Z,75.70
2018-07-01T03:42:10.277Z,76.21
2018-07-01T03:43:10.258Z,76.01
2018-07-01T03:44:10.253Z,76.01
2018-07-01T03:45:10.234Z,76.11
2018-07-01T03:46:10.226Z,76.01
2018-07-01T03:47:10.225Z,75.90
2018-07-01T03:48:10.212Z,76.11
2018-07-01T03:49:10.193Z,76.42
2018-07-01T03:50:10.207Z,77.14
2018-07-01T03:51:10.174Z,76.42
2018-07-01T03:52:10.164Z,76.63
2018-07-01T03:53:10.147Z,77.28
2018-07-01T03:54:10.139Z,76.93
2018-07-01T03:55:10.137Z,76.76
2018-07-01T03:56:10.109Z,76.97
2018-07-01T03:57:10.108Z,77.08
2018-07-01T03:58:10.092Z,76.97
2018-07-01T03:59:10.083Z,76.76
2018-07-01T04:00:10.065Z,76.97
2018-07-01T04:01:10.085Z,77.18
2018-07-01T04:02:10.061Z,77.08
2018-07-01T04:03:10.037Z,77.18
2018-07-01T04:04:10.022Z,77.08
2018-07-01T04:05:10.018Z,77.08
2018-07-01T04:06:09.999Z,77.18
2018-07-01T04:07:10.003Z,77.08
2018-07-01T04:08:09.983Z,77.08
2018-07-01T04:09:09.968Z,77.28
2018-07-01T04:10:09.953Z,76.87
2018-07-01T04:11:09.966Z,76.87
2018-07-01T04:12:09.943Z,77.08
2018-07-01T04:13:09.927Z,76.97
2018-07-01T04:14:09.908Z,76.87
2018-07-01T04:15:09.899Z,76.87
2018-07-01T04:16:09.884Z,77.59
2018-07-01T04:17:09.904Z,77.80
2018-07-01T04:18:09.864Z,77.59
2018-07-01T04:19:09.854Z,77.73
2018-07-01T04:20:09.840Z,77.62
2018-07-01T04:21:09.831Z,78.04
2018-07-01T04:22:09.829Z,78.04
2018-07-01T04:23:09.811Z,77.73
2018-07-01T04:24:09.797Z,77.52
2018-07-01T04:25:09.824Z,77.73
2018-07-01T04:26:09.784Z,78.14
2018-07-01T04:27:09.773Z,78.34
2018-07-01T04:28:09.750Z,78.97
2018-07-01T04:29:09.746Z,78.24
2018-07-01T04:30:09.743Z,78.76
2018-07-01T04:31:09.846Z,77.94
2018-07-01T04:32:09.717Z,78.76
2018-07-01T04:33:09.693Z,77.94
2018-07-01T04:34:09.684Z,78.97
2018-07-01T04:35:09.679Z,78.86
2018-07-01T04:36:09.663Z,78.97
2018-07-01T04:37:09.663Z,79.07
2018-07-01T04:38:09.639Z,78.24
2018-07-01T04:39:09.630Z,78.45
2018-07-01T04:40:09.615Z,77.94
2018-07-01T04:41:09.603Z,77.83
2018-07-01T04:42:09.604Z,78.34
2018-07-01T04:43:09.582Z,78.45
2018-07-01T04:44:09.572Z,78.45
2018-07-01T04:45:09.561Z,78.34
2018-07-01T04:46:09.552Z,78.24
2018-07-01T04:47:09.550Z,78.86
2018-07-01T04:48:09.526Z,79.17
2018-07-01T04:49:09.566Z,78.24
2018-07-01T04:50:09.520Z,78.86
2018-07-01T04:51:09.522Z,78.04
2018-07-01T04:52:09.515Z,78.76
2018-07-01T04:53:09.473Z,78.24
2018-07-01T04:54:09.476Z,78.66
2018-07-01T04:55:09.501Z,79.07
2018-07-01T04:56:09.435Z,78.34
2018-07-01T04:57:09.436Z,78.04
2018-07-01T04:58:09.417Z,78.24
2018-07-01T04:59:09.406Z,78.66
2018-07-01T05:00:09.418Z,77.83
2018-07-01T05:01:09.383Z,78.34
2018-07-01T05:02:09.420Z,78.76
2018-07-01T05:03:09.357Z,78.76
2018-07-01T05:04:09.349Z,78.34
2018-07-01T05:05:09.335Z,78.76
2018-07-01T05:06:09.366Z,78.45
2018-07-01T05:07:09.312Z,78.97
2018-07-01T05:08:09.321Z,78.66
2018-07-01T05:09:09.294Z,78.24
2018-07-01T05:10:09.277Z,78.66
2018-07-01T05:11:09.268Z,79.38
2018-07-01T05:12:09.256Z,79.07
2018-07-01T05:13:09.257Z,78.55
2018-07-01T05:14:09.238Z,78.76
2018-07-01T05:15:09.221Z,78.76
2018-07-01T05:16:09.210Z,78.76
2018-07-01T05:17:09.220Z,79.38
2018-07-01T05:18:09.210Z,79.69
2018-07-01T05:19:09.178Z,80.06
2018-07-01T05:20:09.167Z,80.79
2018-07-01T05:21:09.158Z,80.20
2018-07-01T05:22:09.153Z,79.90
2018-07-01T05:23:09.159Z,79.58
2018-07-01T05:24:09.120Z,79.03
2018-07-01T05:25:09.110Z,79.75
2018-07-01T05:26:09.098Z,79.75
2018-07-01T05:27:09.088Z,79.55
2018-07-01T05:28:09.085Z,80.37
2018-07-01T05:29:09.091Z,80.58
2018-07-01T05:30:09.055Z,80.06
2018-07-01T05:31:09.045Z,79.86
2018-07-01T05:32:09.055Z,79.44
2018-07-01T05:33:09.039Z,79.65
2018-07-01T05:34:09.018Z,79.72
2018-07-01T05:35:09.012Z,78.69
2018-07-01T05:36:09.008Z,79.03
2018-07-01T05:37:08.997Z,79.30
2018-07-01T05:38:08.976Z,78.58
2018-07-01T05:39:08.966Z,79.41
2018-07-01T05:40:08.941Z,79.20
2018-07-01T05:41:08.933Z,79.30
2018-07-01T05:42:08.925Z,79.30
2018-07-01T05:43:08.916Z,80.44
2018-07-01T05:44:08.896Z,79.82
2018-07-01T05:45:08.885Z,80.23
2018-07-01T05:46:08.873Z,80.54
2018-07-01T05:47:08.862Z,79.99
2018-07-01T05:48:08.863Z,79.93
2018-07-01T05:49:08.840Z,80.02
2018-07-01T05:50:08.829Z,80.54
2018-07-01T05:51:08.818Z,80.81
2018-07-01T05:52:08.843Z,81.12
2018-07-01T05:53:08.806Z,80.91
2018-07-01T05:54:08.794Z,80.91
2018-07-01T05:55:08.789Z,81.02
2018-07-01T05:56:08.768Z,81.60
2018-07-01T05:57:08.795Z,82.63
2018-07-01T05:58:08.759Z,81.15
2018-07-01T05:59:08.736Z,80.32
2018-07-01T06:00:08.725Z,79.32
2018-07-01T06:01:08.711Z,76.68
2018-07-01T06:02:08.702Z,74.46
2018-07-01T06:03:08.703Z,73.36
2018-07-01T06:04:08.675Z,71.77
2018-07-01T06:05:08.665Z,69.15
2018-07-01T06:06:08.668Z,66.33
2018-07-01T06:07:08.642Z,66.57
2018-07-01T06:08:08.645Z,65.31
2018-07-01T06:09:08.620Z,62.23
2018-07-01T06:10:08.614Z,61.94
2018-07-01T06:11:08.599Z,62.11
2018-07-01T06:12:08.590Z,61.37
2018-07-01T06:13:08.594Z,57.56
2018-07-01T06:14:08.631Z,58.95
2018-07-01T06:15:08.581Z,57.91
2018-07-01T06:16:08.549Z,56.64
2018-07-01T06:17:08.535Z,54.38
2018-07-01T06:18:08.538Z,53.05
2018-07-01T06:19:08.516Z,53.93
2018-07-01T06:20:08.518Z,53.70
2018-07-01T06:21:08.494Z,53.17
2018-07-01T06:22:08.485Z,51.73
2018-07-01T06:23:08.485Z,50.92
2018-07-01T06:24:08.464Z,49.58
2018-07-01T06:25:08.452Z,49.05
2018-07-01T06:26:08.443Z,49.44
2018-07-01T06:27:08.431Z,49.74
2018-07-01T06:28:08.440Z,49.13
2018-07-01T06:29:08.414Z,50.30
2018-07-01T06:30:08.416Z,46.97
2018-07-01T06:31:08.389Z,45.84
2018-07-01T06:32:08.386Z,47.25
2018-07-01T06:33:08.392Z,46.83
2018-07-01T06:34:08.361Z,47.41
2018-07-01T06:35:08.350Z,47.00
2018-07-01T06:36:08.341Z,46.38
2018-07-01T06:37:08.330Z,45.25
2018-07-01T06:38:08.340Z,43.64
2018-07-01T06:39:08.329Z,44.75
2018-07-01T06:40:08.298Z,45.23
2018-07-01T06:41:08.290Z,44.51
2018-07-01T06:42:08.279Z,43.20
2018-07-01T06:43:08.285Z,42.90
2018-07-01T06:44:08.258Z,42.88
2018-07-01T06:45:08.249Z,42.38
2018-07-01T06:46:08.237Z,42.25
2018-07-01T06:47:08.235Z,42.66
2018-07-01T06:48:08.240Z,41.17
2018-07-01T06:49:08.208Z,41.87
2018-07-01T06:50:08.200Z,41.65
2018-07-01T06:51:08.188Z,41.05
2018-07-01T06:52:08.178Z,41.33
2018-07-01T06:53:08.202Z,40.83
2018-07-01T06:54:08.175Z,42.24
2018-07-01T06:55:08.156Z,42.21
2018-07-01T06:56:08.141Z,41.91
2018-07-01T06:57:08.131Z,40.39
2018-07-01T06:58:08.144Z,40.47
2018-07-01T06:59:08.109Z,40.99
2018-07-01T07:00:08.104Z,40.57
2018-07-01T07:01:08.131Z,39.35
2018-07-01T07:02:08.086Z,39.15
2018-07-01T07:03:08.088Z,39.15
2018-07-01T07:04:08.064Z,38.55
2018-07-01T07:05:08.055Z,39.43
2018-07-01T07:06:08.050Z,39.03
2018-07-01T07:07:08.038Z,38.03
2018-07-01T07:08:08.132Z,38.43
2018-07-01T07:09:08.036Z,37.93
2018-07-01T07:10:08.011Z,37.31
2018-07-01T07:11:07.994Z,37.31
2018-07-01T07:12:07.997Z,37.51
2018-07-01T07:13:07.980Z,37.21
2018-07-01T07:14:07.988Z,37.71
2018-07-01T07:15:07.960Z,37.40
2018-07-01T07:16:08.003Z,37.59
2018-07-01T07:17:07.970Z,37.49
2018-07-01T07:18:07.933Z,37.19
2018-07-01T07:19:07.935Z,36.49
2018-07-01T07:20:07.906Z,36.41
2018-07-01T07:21:07.896Z,37.10
2018-07-01T07:22:07.890Z,36.49
2018-07-01T07:23:07.876Z,36.99
2018-07-01T07:24:07.883Z,35.80
2018-07-01T07:25:07.857Z,35.80
2018-07-01T07:26:07.851Z,36.38
2018-07-01T07:27:07.840Z,35.88
2018-07-01T07:28:08.685Z,35.76
2018-07-01T07:29:07.835Z,34.48
2018-07-01T07:30:07.808Z,33.98
2018-07-01T07:31:07.798Z,35.49
2018-07-01T07:32:07.791Z,34.59
2018-07-01T07:33:07.793Z,34.06
2018-07-01T07:34:07.785Z,34.46
2018-07-01T07:35:07.756Z,34.18
2018-07-01T07:36:07.747Z,34.56
2018-07-01T07:37:07.737Z,34.26
2018-07-01T07:38:07.728Z,33.35
2018-07-01T07:39:07.737Z,34.05
2018-07-01T07:40:07.705Z,33.73
2018-07-01T07:41:07.696Z,33.23
2018-07-01T07:42:07.681Z,33.65
2018-07-01T07:43:07.674Z,33.35
2018-07-01T07:44:07.680Z,33.76
2018-07-01T07:45:07.693Z,34.16
2018-07-01T07:46:07.642Z,34.26
2018-07-01T07:47:07.629Z,33.98
2018-07-01T07:48:07.617Z,33.36
2018-07-01T07:49:07.626Z,34.56
2018-07-01T07:50:07.597Z,33.84
2018-07-01T07:51:07.584Z,33.83
2018-07-01T07:52:07.636Z,33.51
2018-07-01T07:53:07.587Z,33.22
2018-07-01T07:54:07.594Z,33.31
2018-07-01T07:55:07.546Z,33.01
2018-07-01T07:56:07.534Z,32.98
2018-07-01T07:57:07.527Z,32.77
2018-07-01T07:58:07.508Z,34.46
2018-07-01T07:59:07.514Z,32.47
2018-07-01T08:00:07.495Z,32.07
2018-07-01T08:01:07.484Z,31.18
2018-07-01T08:02:07.569Z,32.06
2018-07-01T08:03:07.461Z,31.84
2018-07-01T08:04:07.466Z,30.96
2018-07-01T08:05:07.435Z,30.94
2018-07-01T08:06:07.429Z,31.24
2018-07-01T08:07:07.426Z,31.23
2018-07-01T08:08:07.414Z,30.62
2018-07-01T08:09:07.401Z,31.13
2018-07-01T08:10:07.380Z,31.73
2018-07-01T08:11:07.372Z,31.03
2018-07-01T08:12:07.358Z,31.41
2018-07-01T08:13:07.487Z,31.41
2018-07-01T08:14:07.348Z,31.51
2018-07-01T08:15:07.329Z,31.12
2018-07-01T08:16:07.322Z,30.00
2018-07-01T08:17:07.310Z,30.90
2018-07-01T08:18:07.296Z,29.90
2018-07-01T08:19:07.296Z,30.99
2018-07-01T08:20:07.276Z,29.80
2018-07-01T08:21:07.266Z,29.90
2018-07-01T08:22:07.255Z,30.38
2018-07-01T08:23:07.247Z,29.78
2018-07-01T08:24:07.245Z,29.08
2018-07-01T08:25:07.230Z,30.69
2018-07-01T08:26:07.215Z,30.09
2018-07-01T08:27:07.220Z,30.77
2018-07-01T08:28:07.190Z,31.33
2018-07-01T08:29:07.196Z,31.74
2018-07-01T08:30:07.171Z,30.09
2018-07-01T08:31:07.160Z,29.25
2018-07-01T08:32:07.150Z,29.33
2018-07-01T08:33:07.147Z,28.20
2018-07-01T08:34:07.141Z,27.98
2018-07-01T08:35:07.123Z,27.69
2018-07-01T08:36:07.106Z,27.18
2018-07-01T08:37:07.116Z,27.87
2018-07-01T08:38:07.085Z,27.86
2018-07-01T08:39:07.084Z,26.57
2018-07-01T08:40:07.085Z,27.36
2018-07-01T08:41:07.059Z,27.47
2018-07-01T08:42:07.042Z,27.35
2018-07-01T08:43:07.052Z,27.64
2018-07-01T08:44:07.034Z,27.93
2018-07-01T08:45:07.011Z,25.68
2018-07-01T08:46:07.003Z,26.98
2018-07-01T08:47:06.989Z,26.91
2018-07-01T08:48:06.978Z,27.67
2018-07-01T08:49:06.977Z,27.65
2018-07-01T08:50:06.956Z,25.65
2018-07-01T08:51:06.948Z,26.93
2018-07-01T08:52:06.935Z,26.94
2018-07-01T08:53:06.929Z,26.76
2018-07-01T08:54:06.923Z,26.66
2018-07-01T08:55:06.905Z,27.04
2018-07-01T08:56:06.891Z,26.43
2018-07-01T08:57:06.880Z,26.90
2018-07-01T08:58:06.870Z,24.52
2018-07-01T08:59:06.871Z,26.57
2018-07-01T09:00:06.850Z,24.29
2018-07-01T09:01:06.837Z,25.77
2018-07-01T09:02:06.828Z,23.97
2018-07-01T09:03:06.820Z,24.40
2018-07-01T09:04:06.815Z,25.31
2018-07-01T09:05:06.795Z,25.51
2018-07-01T09:06:06.789Z,25.50
2018-07-01T09:07:06.771Z,25.09
2018-07-01T09:08:06.761Z,24.79
2018-07-01T09:09:06.759Z,23.69
2018-07-01T09:10:06.752Z,23.77
2018-07-01T09:11:06.733Z,23.61
2018-07-01T09:12:06.719Z,24.52
2018-07-01T09:13:06.708Z,24.02
2018-07-01T09:14:06.699Z,24.02
2018-07-01T09:15:06.695Z,24.64
2018-07-01T09:16:06.675Z,24.91
2018-07-01T09:17:06.719Z,24.02
2018-07-01T09:18:06.680Z,24.00
2018-07-01T09:19:06.642Z,23.89
2018-07-01T09:20:06.644Z,23.79
2018-07-01T09:21:07.603Z,23.57
2018-07-01T09:22:06.667Z,23.56
2018-07-01T09:23:06.616Z,22.06
2018-07-01T09:24:06.593Z,21.76
2018-07-01T09:25:06.605Z,21.87
2018-07-01T09:26:06.580Z,22.56
2018-07-01T09:27:06.557Z,22.56
2018-07-01T09:28:06.547Z,22.56
2018-07-01T09:29:06.542Z,21.47
2018-07-01T09:30:06.584Z,21.86
2018-07-01T09:31:06.532Z,21.87
2018-07-01T09:32:06.519Z,21.36
2018-07-01T09:33:06.518Z,22.14
2018-07-01T09:34:06.608Z,22.24
2018-07-01T09:35:06.495Z,22.80
2018-07-01T09:36:06.466Z,20.85
2018-07-01T09:37:07.148Z,20.54
2018-07-01T09:38:06.442Z,21.01
2018-07-01T09:39:06.432Z,20.62
2018-07-01T09:40:06.437Z,21.21
2018-07-01T09:41:06.407Z,20.54
2018-07-01T09:42:06.396Z,20.63
2018-07-01T09:43:06.387Z,20.72
2018-07-01T09:44:06.394Z,20.14
2018-07-01T09:45:06.369Z,21.25
2018-07-01T09:46:06.349Z,21.56
2018-07-01T09:47:06.338Z,23.74
2018-07-01T09:48:06.327Z,22.67
2018-07-01T09:49:06.326Z,21.51
2018-07-01T09:50:06.321Z,21.23
2018-07-01T09:51:06.299Z,24.12
2018-07-01T09:52:06.284Z,24.08
2018-07-01T09:53:06.274Z,24.10
2018-07-01T09:54:06.266Z,25.91
2018-07-01T09:55:06.271Z,27.53
2018-07-01T09:56:06.249Z,27.68
2018-07-01T09:57:06.293Z,28.20
2018-07-01T09:58:06.224Z,29.82
2018-07-01T09:59:06.215Z,29.65
2018-07-01T10:00:06.213Z,30.19
2018-07-01T10:01:06.225Z,31.32
2018-07-01T10:02:06.180Z,31.05
2018-07-01T10:03:06.178Z,31.08
2018-07-01T10:04:06.200Z,32.61
2018-07-01T10:05:06.171Z,33.03
2018-07-01T10:06:06.134Z,34.55
2018-07-01T10:07:06.125Z,34.36
2018-07-01T10:08:06.118Z,32.86
2018-07-01T10:09:06.105Z,33.47
2018-07-01T10:10:06.117Z,34.58
2018-07-01T10:11:06.083Z,34.08
2018-07-01T10:12:06.162Z,34.78
2018-07-01T10:13:06.061Z,34.28
2018-07-01T10:14:06.049Z,35.60
2018-07-01T10:15:06.052Z,42.80
2018-07-01T10:16:06.025Z,36.68
2018-07-01T10:17:06.015Z,34.67
2018-07-01T10:18:06.007Z,34.17
2018-07-01T10:19:05.995Z,36.08
2018-07-01T10:20:05.997Z,35.68
2018-07-01T10:21:05.979Z,35.48
2018-07-01T10:22:05.962Z,35.68
2018-07-01T10:23:05.953Z,34.98
2018-07-01T10:24:05.958Z,34.17
2018-07-01T10:25:05.943Z,34.58
2018-07-01T10:26:05.918Z,34.89
2018-07-01T10:27:05.926Z,36.08
2018-07-01T10:28:05.896Z,33.99
2018-07-01T10:29:05.888Z,35.60
2018-07-01T10:30:05.888Z,35.80
2018-07-01T10:31:05.864Z,34.80
2018-07-01T10:32:05.850Z,35.19
2018-07-01T10:33:05.844Z,35.51
2018-07-01T10:34:05.836Z,39.11
2018-07-01T10:35:05.835Z,35.19
2018-07-01T10:36:05.809Z,35.60
2018-07-01T10:37:05.799Z,35.69
2018-07-01T10:38:05.788Z,40.71
2018-07-01T10:39:05.774Z,36.18
2018-07-01T10:40:05.830Z,35.68
2018-07-01T10:41:05.754Z,33.58
2018-07-01T10:42:05.740Z,35.60
2018-07-01T10:43:05.735Z,35.91
2018-07-01T10:44:05.721Z,35.11
2018-07-01T10:45:05.734Z,35.91
2018-07-01T10:46:05.723Z,36.21
2018-07-01T10:47:06.745Z,34.61
2018-07-01T10:48:05.681Z,35.21
2018-07-01T10:49:05.667Z,34.31
2018-07-01T10:50:05.681Z,34.51
2018-07-01T10:51:05.647Z,34.21
2018-07-01T10:52:05.634Z,35.01
2018-07-01T10:53:05.624Z,35.71
2018-07-01T10:54:05.612Z,35.41
2018-07-01T10:55:05.666Z,34.81
2018-07-01T10:56:05.663Z,35.11
2018-07-01T10:57:05.581Z,35.82
2018-07-01T10:58:05.570Z,35.51
2018-07-01T10:59:05.555Z,35.41
2018-07-01T11:00:05.560Z,36.30
2018-07-01T11:01:05.533Z,36.70
2018-07-01T11:02:05.525Z,33.39
2018-07-01T11:03:05.517Z,34.39
2018-07-01T11:04:05.503Z,33.40
2018-07-01T11:05:05.509Z,34.19
2018-07-01T11:06:05.510Z,34.61
2018-07-01T11:07:05.469Z,33.99
2018-07-01T11:08:05.459Z,33.20
2018-07-01T11:09:05.447Z,34.61
2018-07-01T11:10:05.463Z,36.11
2018-07-01T11:11:05.430Z,34.39
2018-07-01T11:12:05.410Z,34.29
2018-07-01T11:13:05.398Z,34.59
2018-07-01T11:14:05.390Z,33.91
2018-07-01T11:15:05.414Z,34.51
2018-07-01T11:16:05.366Z,34.61
2018-07-01T11:17:05.356Z,34.51
2018-07-01T11:18:05.344Z,38.92
2018-07-01T11:19:05.334Z,34.11
2018-07-01T11:20:05.321Z,34.80
2018-07-01T11:21:05.320Z,33.79
2018-07-01T11:22:05.305Z,34.80
2018-07-01T11:23:05.289Z,34.89
2018-07-01T11:24:05.278Z,34.49
2018-07-01T11:25:05.268Z,33.39
2018-07-01T11:26:05.266Z,33.99
2018-07-01T11:27:05.444Z,33.40
2018-07-01T11:28:05.243Z,32.60
2018-07-01T11:29:05.226Z,34.41
2018-07-01T11:30:05.214Z,33.51
2018-07-01T11:31:05.211Z,34.61
2018-07-01T11:32:05.192Z,34.71
2018-07-01T11:33:06.230Z,35.10
2018-07-01T11:34:05.172Z,34.91
2018-07-01T11:35:05.211Z,35.69
2018-07-01T11:36:05.162Z,34.29
2018-07-01T11:37:05.137Z,33.47
2018-07-01T11:38:05.155Z,33.07
2018-07-01T11:39:05.116Z,35.98
2018-07-01T11:40:05.116Z,34.88
2018-07-01T11:41:05.143Z,33.16
2018-07-01T11:42:05.085Z,33.76
2018-07-01T11:43:05.074Z,32.86
2018-07-01T11:44:05.061Z,33.37
2018-07-01T11:45:05.057Z,31.67
2018-07-01T11:46:05.077Z,33.28
2018-07-01T11:47:05.099Z,32.89
2018-07-01T11:48:05.020Z,32.99
2018-07-01T11:49:05.005Z,33.99
2018-07-01T11:50:04.996Z,32.89
2018-07-01T11:51:04.996Z,33.99
2018-07-01T11:52:04.980Z,33.69
2018-07-01T11:53:04.974Z,33.49
2018-07-01T11:54:04.955Z,32.79
2018-07-01T11:55:04.939Z,33.31
2018-07-01T11:56:04.949Z,31.90
2018-07-01T11:57:04.920Z,32.60
2018-07-01T11:58:05.039Z,32.09
2018-07-01T11:59:04.897Z,31.80
2018-07-01T12:00:04.950Z,32.30
2018-07-01T12:01:05.700Z,32.30
2018-07-01T12:02:04.870Z,32.20
2018-07-01T12:03:04.856Z,32.20
2018-07-01T12:04:04.843Z,32.20
2018-07-01T12:05:16.656Z,30.30
2018-07-01T12:06:04.829Z,32.50
2018-07-01T12:07:04.823Z,31.70
2018-07-01T12:08:04.798Z,31.40
2018-07-01T12:09:04.790Z,30.30
2018-07-01T12:10:04.779Z,30.90
2018-07-01T12:11:04.774Z,31.10
2018-07-01T12:12:04.864Z,31.50
2018-07-01T12:13:04.744Z,31.90
2018-07-01T12:14:04.732Z,30.60
2018-07-01T12:15:04.724Z,31.20
2018-07-01T12:16:04.737Z,30.51
2018-07-01T12:17:04.701Z,30.19
2018-07-01T12:18:04.692Z,30.10
2018-07-01T12:19:04.679Z,31.10
2018-07-01T12:20:04.668Z,31.40
2018-07-01T12:21:04.666Z,32.10
2018-07-01T12:22:04.646Z,30.40
2018-07-01T12:23:04.634Z,30.30
2018-07-01T12:24:04.667Z,29.58
2018-07-01T12:25:04.643Z,29.09
2018-07-01T12:26:04.612Z,29.99
2018-07-01T12:27:04.591Z,30.40
2018-07-01T12:28:04.580Z,29.99
2018-07-01T12:29:04.574Z,30.30
2018-07-01T12:30:04.561Z,30.10
2018-07-01T12:31:04.573Z,30.60
2018-07-01T12:32:04.542Z,31.00
2018-07-01T12:33:04.527Z,30.69
2018-07-01T12:34:04.528Z,31.59
2018-07-01T12:35:04.508Z,30.68
2018-07-01T12:36:04.502Z,30.48
2018-07-01T12:37:05.271Z,33.09
2018-07-01T12:38:04.476Z,33.47
2018-07-01T12:39:04.460Z,30.87
2018-07-01T12:40:04.450Z,29.57
2018-07-01T12:41:04.452Z,29.68
2018-07-01T12:42:04.477Z,29.86
2018-07-01T12:43:04.425Z,29.86
2018-07-01T12:44:04.407Z,29.66
2018-07-01T12:45:04.395Z,29.88
2018-07-01T12:46:04.393Z,30.18
2018-07-01T12:47:04.373Z,30.48
2018-07-01T12:48:04.364Z,30.08
2018-07-01T12:49:04.368Z,30.28
2018-07-01T12:50:04.345Z,30.08
2018-07-01T12:51:04.344Z,31.99
2018-07-01T12:52:04.396Z,30.58